SSX weather

Singita Safari Lodge Airport
Singita Safari Lodge, Mpumalanga, South Africa

Public forecast

Using degrees Celsius for public forecast. Weather courtesy of forecast.io.

Closest aviation weather report (METAR) to Singita Safari Lodge Airport

Closest report is Hoedspruit Air Force Base Airport, 33.1 nm (61.2 km) NW. Retrieved 2020/01/25 04:00 UTC (43 minutes ago):

FAHS 250400Z AUTO 18002KT //// // ////// 22/19 Q1019

Closest aviation forecast (TAF) to Singita Safari Lodge Airport

Forecast is more than 12 hours old.

Closest forecast is Hoedspruit Air Force Base Airport, 33.1 nm (61.2 km) NW. Retrieved 2017/05/23 04:01 UTC (3 years ago):

TAF FAHS 230300Z 2304/2315 VRB02KT CAVOK TX29/2312ZTN12/2304Z